sensor_id;sensor_type;location;lat;lon;timestamp;P1;durP1;ratioP1;P2;durP2;ratioP2
3843;SDS011;1937;51.444;6.484;2023-04-24T00:01:07;29.50;;;5.00;;
3843;SDS011;1937;51.444;6.484;2023-04-24T00:03:33;29.70;;;4.53;;
3843;SDS011;1937;51.444;6.484;2023-04-24T00:06:02;31.47;;;4.87;;
3843;SDS011;1937;51.444;6.484;2023-04-24T00:08:29;29.43;;;5.40;;
3843;SDS011;1937;51.444;6.484;2023-04-24T00:10:55;32.73;;;5.10;;
3843;SDS011;1937;51.444;6.484;2023-04-24T00:13:22;30.10;;;4.80;;
3843;SDS011;1937;51.444;6.484;2023-04-24T00:15:48;30.70;;;5.87;;
3843;SDS011;1937;51.444;6.484;2023-04-24T00:18:15;29.60;;;6.37;;
3843;SDS011;1937;51.444;6.484;2023-04-24T00:20:42;30.63;;;7.27;;
3843;SDS011;1937;51.444;6.484;2023-04-24T00:23:10;31.60;;;6.53;;
3843;SDS011;1937;51.444;6.484;2023-04-24T00:25:36;27.93;;;4.57;;
3843;SDS011;1937;51.444;6.484;2023-04-24T00:28:03;30.03;;;6.73;;
3843;SDS011;1937;51.444;6.484;2023-04-24T00:30:30;31.93;;;5.70;;
3843;SDS011;1937;51.444;6.484;2023-04-24T00:32:56;31.70;;;5.00;;
3843;SDS011;1937;51.444;6.484;2023-04-24T00:35:23;30.20;;;4.97;;
3843;SDS011;1937;51.444;6.484;2023-04-24T00:37:50;32.10;;;5.20;;
3843;SDS011;1937;51.444;6.484;2023-04-24T00:40:18;31.90;;;6.50;;
3843;SDS011;1937;51.444;6.484;2023-04-24T00:42:44;31.97;;;5.33;;
3843;SDS011;1937;51.444;6.484;2023-04-24T00:45:11;32.43;;;6.50;;
3843;SDS011;1937;51.444;6.484;2023-04-24T00:47:38;32.30;;;6.07;;
3843;SDS011;1937;51.444;6.484;2023-04-24T00:50:05;32.20;;;6.70;;
3843;SDS011;1937;51.444;6.484;2023-04-24T00:52:33;32.47;;;6.43;;
3843;SDS011;1937;51.444;6.484;2023-04-24T00:54:59;32.30;;;8.20;;
3843;SDS011;1937;51.444;6.484;2023-04-24T00:57:27;31.93;;;6.67;;
3843;SDS011;1937;51.444;6.484;2023-04-24T00:59:54;32.07;;;7.17;;
3843;SDS011;1937;51.444;6.484;2023-04-24T01:02:21;34.00;;;7.90;;
3843;SDS011;1937;51.444;6.484;2023-04-24T01:04:49;35.10;;;7.57;;
3843;SDS011;1937;51.444;6.484;2023-04-24T01:07:17;31.57;;;7.20;;
3843;SDS011;1937;51.444;6.484;2023-04-24T01:09:45;30.97;;;6.60;;
3843;SDS011;1937;51.444;6.484;2023-04-24T01:12:15;33.13;;;7.03;;
3843;SDS011;1937;51.444;6.484;2023-04-24T01:14:46;35.30;;;8.30;;
3843;SDS011;1937;51.444;6.484;2023-04-24T01:17:13;32.57;;;6.67;;
3843;SDS011;1937;51.444;6.484;2023-04-24T01:19:40;36.63;;;8.03;;
3843;SDS011;1937;51.444;6.484;2023-04-24T01:22:11;34.77;;;8.70;;
3843;SDS011;1937;51.444;6.484;2023-04-24T01:24:39;33.70;;;8.13;;
3843;SDS011;1937;51.444;6.484;2023-04-24T01:27:06;38.27;;;8.87;;
3843;SDS011;1937;51.444;6.484;2023-04-24T01:29:34;39.40;;;8.97;;
3843;SDS011;1937;51.444;6.484;2023-04-24T01:32:01;37.27;;;8.37;;
3843;SDS011;1937;51.444;6.484;2023-04-24T01:34:28;33.70;;;7.70;;
3843;SDS011;1937;51.444;6.484;2023-04-24T01:36:55;37.57;;;8.53;;
3843;SDS011;1937;51.444;6.484;2023-04-24T01:39:23;35.70;;;8.13;;
3843;SDS011;1937;51.444;6.484;2023-04-24T01:41:50;34.40;;;9.07;;
3843;SDS011;1937;51.444;6.484;2023-04-24T01:44:17;40.50;;;8.50;;
3843;SDS011;1937;51.444;6.484;2023-04-24T01:46:44;37.83;;;7.63;;
3843;SDS011;1937;51.444;6.484;2023-04-24T01:49:11;39.20;;;9.40;;
3843;SDS011;1937;51.444;6.484;2023-04-24T01:51:37;38.73;;;8.43;;
3843;SDS011;1937;51.444;6.484;2023-04-24T01:54:04;34.53;;;7.83;;
3843;SDS011;1937;51.444;6.484;2023-04-24T01:56:33;37.53;;;7.90;;
3843;SDS011;1937;51.444;6.484;2023-04-24T01:59:00;35.30;;;7.87;;
3843;SDS011;1937;51.444;6.484;2023-04-24T02:01:33;37.97;;;9.00;;
3843;SDS011;1937;51.444;6.484;2023-04-24T02:04:01;35.17;;;8.40;;
3843;SDS011;1937;51.444;6.484;2023-04-24T02:06:27;40.00;;;10.10;;
3843;SDS011;1937;51.444;6.484;2023-04-24T02:08:54;38.53;;;9.27;;
3843;SDS011;1937;51.444;6.484;2023-04-24T02:11:20;38.97;;;8.50;;
3843;SDS011;1937;51.444;6.484;2023-04-24T02:13:48;35.00;;;8.83;;
3843;SDS011;1937;51.444;6.484;2023-04-24T02:16:15;41.50;;;10.23;;
3843;SDS011;1937;51.444;6.484;2023-04-24T02:18:42;36.40;;;9.97;;
3843;SDS011;1937;51.444;6.484;2023-04-24T02:21:08;43.10;;;10.60;;
3843;SDS011;1937;51.444;6.484;2023-04-24T02:23:35;40.07;;;10.20;;
3843;SDS011;1937;51.444;6.484;2023-04-24T02:26:01;39.83;;;10.57;;
3843;SDS011;1937;51.444;6.484;2023-04-24T02:28:28;42.50;;;10.20;;
3843;SDS011;1937;51.444;6.484;2023-04-24T02:30:56;39.63;;;10.90;;
3843;SDS011;1937;51.444;6.484;2023-04-24T02:33:23;44.73;;;12.10;;
3843;SDS011;1937;51.444;6.484;2023-04-24T02:35:50;40.30;;;11.97;;
3843;SDS011;1937;51.444;6.484;2023-04-24T02:38:16;38.87;;;10.20;;
3843;SDS011;1937;51.444;6.484;2023-04-24T02:40:43;47.73;;;11.73;;
3843;SDS011;1937;51.444;6.484;2023-04-24T02:43:09;40.30;;;11.17;;
3843;SDS011;1937;51.444;6.484;2023-04-24T02:45:36;40.53;;;11.40;;
3843;SDS011;1937;51.444;6.484;2023-04-24T02:48:04;41.23;;;12.37;;
3843;SDS011;1937;51.444;6.484;2023-04-24T02:50:31;47.83;;;11.67;;
3843;SDS011;1937;51.444;6.484;2023-04-24T02:52:58;46.83;;;13.50;;
3843;SDS011;1937;51.444;6.484;2023-04-24T02:55:25;47.10;;;11.73;;
3843;SDS011;1937;51.444;6.484;2023-04-24T02:57:51;42.23;;;11.60;;
3843;SDS011;1937;51.444;6.484;2023-04-24T03:00:18;45.27;;;12.80;;
3843;SDS011;1937;51.444;6.484;2023-04-24T03:02:45;45.73;;;13.23;;
3843;SDS011;1937;51.444;6.484;2023-04-24T03:05:13;43.47;;;12.70;;
3843;SDS011;1937;51.444;6.484;2023-04-24T03:07:39;44.00;;;13.27;;
3843;SDS011;1937;51.444;6.484;2023-04-24T03:10:06;42.70;;;14.63;;
3843;SDS011;1937;51.444;6.484;2023-04-24T03:12:33;44.40;;;14.40;;
3843;SDS011;1937;51.444;6.484;2023-04-24T03:15:00;43.67;;;13.70;;
3843;SDS011;1937;51.444;6.484;2023-04-24T03:17:27;45.80;;;13.20;;
3843;SDS011;1937;51.444;6.484;2023-04-24T03:19:53;51.50;;;12.70;;
3843;SDS011;1937;51.444;6.484;2023-04-24T03:22:21;43.23;;;13.33;;
3843;SDS011;1937;51.444;6.484;2023-04-24T03:24:48;46.03;;;12.53;;
3843;SDS011;1937;51.444;6.484;2023-04-24T03:27:15;45.37;;;13.20;;
3843;SDS011;1937;51.444;6.484;2023-04-24T03:29:41;39.67;;;10.90;;
3843;SDS011;1937;51.444;6.484;2023-04-24T03:32:08;41.50;;;11.50;;
3843;SDS011;1937;51.444;6.484;2023-04-24T03:34:35;47.17;;;13.17;;
3843;SDS011;1937;51.444;6.484;2023-04-24T03:37:01;65.63;;;12.50;;
3843;SDS011;1937;51.444;6.484;2023-04-24T03:39:29;43.53;;;12.27;;
3843;SDS011;1937;51.444;6.484;2023-04-24T03:41:56;45.13;;;12.70;;
3843;SDS011;1937;51.444;6.484;2023-04-24T03:44:22;46.60;;;12.53;;
3843;SDS011;1937;51.444;6.484;2023-04-24T03:46:49;42.97;;;14.40;;
3843;SDS011;1937;51.444;6.484;2023-04-24T03:49:15;40.70;;;11.53;;
3843;SDS011;1937;51.444;6.484;2023-04-24T03:51:42;48.53;;;12.50;;
3843;SDS011;1937;51.444;6.484;2023-04-24T03:54:08;38.53;;;11.20;;
3843;SDS011;1937;51.444;6.484;2023-04-24T03:56:36;48.30;;;11.63;;
3843;SDS011;1937;51.444;6.484;2023-04-24T03:59:03;41.80;;;9.67;;
3843;SDS011;1937;51.444;6.484;2023-04-24T04:01:29;38.83;;;11.00;;
3843;SDS011;1937;51.444;6.484;2023-04-24T04:03:56;45.80;;;12.23;;
3843;SDS011;1937;51.444;6.484;2023-04-24T04:06:22;42.30;;;12.07;;
3843;SDS011;1937;51.444;6.484;2023-04-24T04:08:49;39.60;;;10.60;;
3843;SDS011;1937;51.444;6.484;2023-04-24T04:11:15;43.70;;;11.13;;
3843;SDS011;1937;51.444;6.484;2023-04-24T04:13:43;42.63;;;11.60;;
3843;SDS011;1937;51.444;6.484;2023-04-24T04:16:10;46.40;;;13.13;;
3843;SDS011;1937;51.444;6.484;2023-04-24T04:18:37;46.37;;;13.00;;
3843;SDS011;1937;51.444;6.484;2023-04-24T04:21:04;42.17;;;11.73;;
3843;SDS011;1937;51.444;6.484;2023-04-24T04:23:30;47.40;;;12.67;;
3843;SDS011;1937;51.444;6.484;2023-04-24T04:25:57;47.13;;;12.07;;
3843;SDS011;1937;51.444;6.484;2023-04-24T04:28:24;39.80;;;10.50;;
3843;SDS011;1937;51.444;6.484;2023-04-24T04:30:52;39.07;;;10.20;;
3843;SDS011;1937;51.444;6.484;2023-04-24T04:33:20;46.63;;;9.93;;
3843;SDS011;1937;51.444;6.484;2023-04-24T04:35:47;37.83;;;10.03;;
3843;SDS011;1937;51.444;6.484;2023-04-24T04:38:14;37.70;;;9.90;;
3843;SDS011;1937;51.444;6.484;2023-04-24T04:40:41;47.20;;;10.33;;
3843;SDS011;1937;51.444;6.484;2023-04-24T04:43:08;36.50;;;9.97;;
3843;SDS011;1937;51.444;6.484;2023-04-24T04:45:35;38.67;;;10.73;;
3843;SDS011;1937;51.444;6.484;2023-04-24T04:48:03;37.87;;;9.90;;
3843;SDS011;1937;51.444;6.484;2023-04-24T04:50:32;39.43;;;10.43;;
3843;SDS011;1937;51.444;6.484;2023-04-24T04:52:59;39.30;;;9.00;;
3843;SDS011;1937;51.444;6.484;2023-04-24T04:55:25;36.70;;;11.60;;
3843;SDS011;1937;51.444;6.484;2023-04-24T04:57:52;34.20;;;8.47;;
3843;SDS011;1937;51.444;6.484;2023-04-24T05:00:18;36.77;;;9.50;;
3843;SDS011;1937;51.444;6.484;2023-04-24T05:02:46;38.27;;;9.60;;
3843;SDS011;1937;51.444;6.484;2023-04-24T05:05:14;38.50;;;8.53;;
3843;SDS011;1937;51.444;6.484;2023-04-24T05:07:42;36.17;;;9.13;;
3843;SDS011;1937;51.444;6.484;2023-04-24T05:10:08;34.50;;;9.50;;
3843;SDS011;1937;51.444;6.484;2023-04-24T05:12:35;34.23;;;9.07;;
3843;SDS011;1937;51.444;6.484;2023-04-24T05:15:02;36.70;;;8.40;;
3843;SDS011;1937;51.444;6.484;2023-04-24T05:17:29;38.73;;;9.47;;
3843;SDS011;1937;51.444;6.484;2023-04-24T05:19:56;33.93;;;10.57;;
3843;SDS011;1937;51.444;6.484;2023-04-24T05:22:23;38.67;;;11.57;;
3843;SDS011;1937;51.444;6.484;2023-04-24T05:24:50;35.83;;;8.33;;
3843;SDS011;1937;51.444;6.484;2023-04-24T05:27:16;35.10;;;9.50;;
3843;SDS011;1937;51.444;6.484;2023-04-24T05:29:43;37.13;;;9.97;;
3843;SDS011;1937;51.444;6.484;2023-04-24T05:32:10;35.33;;;9.80;;
3843;SDS011;1937;51.444;6.484;2023-04-24T05:34:36;38.87;;;10.30;;
3843;SDS011;1937;51.444;6.484;2023-04-24T05:37:03;34.00;;;9.40;;
3843;SDS011;1937;51.444;6.484;2023-04-24T05:39:34;33.40;;;9.17;;
3843;SDS011;1937;51.444;6.484;2023-04-24T05:42:01;39.27;;;10.27;;
3843;SDS011;1937;51.444;6.484;2023-04-24T05:44:29;32.80;;;9.10;;
3843;SDS011;1937;51.444;6.484;2023-04-24T05:46:56;36.23;;;9.93;;
3843;SDS011;1937;51.444;6.484;2023-04-24T05:49:22;31.10;;;9.43;;
3843;SDS011;1937;51.444;6.484;2023-04-24T05:51:49;29.10;;;9.20;;
3843;SDS011;1937;51.444;6.484;2023-04-24T05:54:15;37.03;;;9.13;;
3843;SDS011;1937;51.444;6.484;2023-04-24T05:56:43;29.37;;;8.43;;
3843;SDS011;1937;51.444;6.484;2023-04-24T05:59:10;29.93;;;9.00;;
3843;SDS011;1937;51.444;6.484;2023-04-24T06:01:37;27.00;;;8.27;;
3843;SDS011;1937;51.444;6.484;2023-04-24T06:04:03;30.40;;;8.93;;
3843;SDS011;1937;51.444;6.484;2023-04-24T06:06:30;27.70;;;9.30;;
3843;SDS011;1937;51.444;6.484;2023-04-24T06:08:57;27.00;;;9.90;;
3843;SDS011;1937;51.444;6.484;2023-04-24T06:11:24;26.83;;;8.43;;
3843;SDS011;1937;51.444;6.484;2023-04-24T06:13:52;25.67;;;7.77;;
3843;SDS011;1937;51.444;6.484;2023-04-24T06:16:18;26.23;;;9.23;;
3843;SDS011;1937;51.444;6.484;2023-04-24T06:18:45;25.80;;;8.50;;
3843;SDS011;1937;51.444;6.484;2023-04-24T06:21:12;23.90;;;7.23;;
3843;SDS011;1937;51.444;6.484;2023-04-24T06:23:39;24.10;;;7.20;;
3843;SDS011;1937;51.444;6.484;2023-04-24T06:26:06;25.77;;;7.80;;
3843;SDS011;1937;51.444;6.484;2023-04-24T06:28:32;23.53;;;7.60;;
3843;SDS011;1937;51.444;6.484;2023-04-24T06:31:00;28.00;;;7.27;;
3843;SDS011;1937;51.444;6.484;2023-04-24T06:33:27;27.67;;;7.97;;
3843;SDS011;1937;51.444;6.484;2023-04-24T06:35:54;21.77;;;6.00;;
3843;SDS011;1937;51.444;6.484;2023-04-24T06:38:20;20.63;;;6.80;;
3843;SDS011;1937;51.444;6.484;2023-04-24T06:40:47;23.53;;;7.77;;
3843;SDS011;1937;51.444;6.484;2023-04-24T06:43:13;20.23;;;6.70;;
3843;SDS011;1937;51.444;6.484;2023-04-24T06:45:40;20.77;;;6.10;;
3843;SDS011;1937;51.444;6.484;2023-04-24T06:48:10;17.60;;;4.83;;
3843;SDS011;1937;51.444;6.484;2023-04-24T06:50:36;20.00;;;4.30;;
3843;SDS011;1937;51.444;6.484;2023-04-24T06:53:03;17.73;;;4.77;;
3843;SDS011;1937;51.444;6.484;2023-04-24T06:55:29;21.97;;;5.10;;
3843;SDS011;1937;51.444;6.484;2023-04-24T06:57:56;18.80;;;4.70;;
3843;SDS011;1937;51.444;6.484;2023-04-24T07:00:23;15.80;;;3.93;;
3843;SDS011;1937;51.444;6.484;2023-04-24T07:02:49;18.33;;;3.60;;
3843;SDS011;1937;51.444;6.484;2023-04-24T07:05:17;15.70;;;3.07;;
3843;SDS011;1937;51.444;6.484;2023-04-24T07:07:45;16.90;;;3.20;;
3843;SDS011;1937;51.444;6.484;2023-04-24T07:10:12;14.23;;;3.10;;
3843;SDS011;1937;51.444;6.484;2023-04-24T07:12:39;13.83;;;3.03;;
3843;SDS011;1937;51.444;6.484;2023-04-24T07:15:06;14.60;;;2.80;;
3843;SDS011;1937;51.444;6.484;2023-04-24T07:17:33;15.27;;;3.40;;
3843;SDS011;1937;51.444;6.484;2023-04-24T07:20:01;26.13;;;3.80;;
3843;SDS011;1937;51.444;6.484;2023-04-24T07:22:29;16.97;;;3.80;;
3843;SDS011;1937;51.444;6.484;2023-04-24T07:24:55;14.00;;;2.77;;
3843;SDS011;1937;51.444;6.484;2023-04-24T07:27:22;13.70;;;2.77;;
3843;SDS011;1937;51.444;6.484;2023-04-24T07:29:48;13.80;;;2.50;;
3843;SDS011;1937;51.444;6.484;2023-04-24T07:32:15;15.50;;;3.07;;
3843;SDS011;1937;51.444;6.484;2023-04-24T07:34:42;13.13;;;2.90;;
3843;SDS011;1937;51.444;6.484;2023-04-24T07:37:08;13.70;;;2.60;;
3843;SDS011;1937;51.444;6.484;2023-04-24T07:39:36;13.27;;;2.60;;
3843;SDS011;1937;51.444;6.484;2023-04-24T07:42:03;11.80;;;2.47;;
3843;SDS011;1937;51.444;6.484;2023-04-24T07:44:29;14.07;;;2.77;;
3843;SDS011;1937;51.444;6.484;2023-04-24T07:46:57;13.50;;;2.63;;
3843;SDS011;1937;51.444;6.484;2023-04-24T07:49:24;12.50;;;2.23;;
3843;SDS011;1937;51.444;6.484;2023-04-24T07:51:50;13.60;;;2.90;;
3843;SDS011;1937;51.444;6.484;2023-04-24T07:54:17;12.50;;;2.43;;
3843;SDS011;1937;51.444;6.484;2023-04-24T07:56:45;13.63;;;2.60;;
3843;SDS011;1937;51.444;6.484;2023-04-24T07:59:11;12.53;;;2.90;;
3843;SDS011;1937;51.444;6.484;2023-04-24T08:01:38;18.10;;;3.07;;
3843;SDS011;1937;51.444;6.484;2023-04-24T08:04:04;12.70;;;2.40;;
3843;SDS011;1937;51.444;6.484;2023-04-24T08:06:31;12.20;;;2.13;;
3843;SDS011;1937;51.444;6.484;2023-04-24T08:08:58;12.40;;;2.60;;
3843;SDS011;1937;51.444;6.484;2023-04-24T08:11:25;11.43;;;2.23;;
3843;SDS011;1937;51.444;6.484;2023-04-24T08:13:54;12.57;;;2.20;;
3843;SDS011;1937;51.444;6.484;2023-04-24T08:16:20;11.40;;;2.03;;
3843;SDS011;1937;51.444;6.484;2023-04-24T08:18:48;13.37;;;2.00;;
3843;SDS011;1937;51.444;6.484;2023-04-24T08:21:15;11.60;;;1.87;;
3843;SDS011;1937;51.444;6.484;2023-04-24T08:23:43;12.10;;;2.07;;
3843;SDS011;1937;51.444;6.484;2023-04-24T08:26:10;11.60;;;2.10;;
3843;SDS011;1937;51.444;6.484;2023-04-24T08:28:37;12.00;;;1.80;;
3843;SDS011;1937;51.444;6.484;2023-04-24T08:31:05;12.13;;;1.93;;
3843;SDS011;1937;51.444;6.484;2023-04-24T08:33:31;11.50;;;1.80;;
3843;SDS011;1937;51.444;6.484;2023-04-24T08:35:59;13.23;;;1.90;;
3843;SDS011;1937;51.444;6.484;2023-04-24T08:38:26;13.63;;;3.10;;
3843;SDS011;1937;51.444;6.484;2023-04-24T08:40:53;21.33;;;6.83;;
3843;SDS011;1937;51.444;6.484;2023-04-24T08:43:20;23.00;;;8.37;;
3843;SDS011;1937;51.444;6.484;2023-04-24T08:45:48;22.27;;;7.33;;
3843;SDS011;1937;51.444;6.484;2023-04-24T08:48:16;21.80;;;7.93;;
3843;SDS011;1937;51.444;6.484;2023-04-24T08:50:43;23.27;;;7.10;;
3843;SDS011;1937;51.444;6.484;2023-04-24T08:53:10;21.70;;;7.20;;
3843;SDS011;1937;51.444;6.484;2023-04-24T08:55:37;23.40;;;8.00;;
3843;SDS011;1937;51.444;6.484;2023-04-24T08:58:04;21.23;;;6.27;;
3843;SDS011;1937;51.444;6.484;2023-04-24T09:00:30;22.17;;;7.73;;
3843;SDS011;1937;51.444;6.484;2023-04-24T09:02:59;21.60;;;6.60;;
3843;SDS011;1937;51.444;6.484;2023-04-24T09:05:28;30.70;;;7.90;;
3843;SDS011;1937;51.444;6.484;2023-04-24T09:07:56;23.50;;;7.70;;
3843;SDS011;1937;51.444;6.484;2023-04-24T09:10:23;20.57;;;7.60;;
3843;SDS011;1937;51.444;6.484;2023-04-24T09:12:51;23.37;;;8.70;;
3843;SDS011;1937;51.444;6.484;2023-04-24T09:15:18;20.70;;;8.23;;
3843;SDS011;1937;51.444;6.484;2023-04-24T09:17:45;23.53;;;7.80;;
3843;SDS011;1937;51.444;6.484;2023-04-24T09:20:12;31.80;;;7.40;;
3843;SDS011;1937;51.444;6.484;2023-04-24T09:22:40;22.03;;;9.10;;
3843;SDS011;1937;51.444;6.484;2023-04-24T09:25:08;22.70;;;7.73;;
3843;SDS011;1937;51.444;6.484;2023-04-24T09:27:38;30.90;;;7.90;;
3843;SDS011;1937;51.444;6.484;2023-04-24T09:30:09;25.40;;;7.10;;
3843;SDS011;1937;51.444;6.484;2023-04-24T09:32:36;23.90;;;8.90;;
3843;SDS011;1937;51.444;6.484;2023-04-24T09:35:10;33.93;;;9.27;;
3843;SDS011;1937;51.444;6.484;2023-04-24T09:37:38;22.30;;;7.60;;
3843;SDS011;1937;51.444;6.484;2023-04-24T09:40:14;22.70;;;7.33;;
3843;SDS011;1937;51.444;6.484;2023-04-24T09:42:45;26.07;;;7.37;;
3843;SDS011;1937;51.444;6.484;2023-04-24T09:45:13;31.03;;;8.23;;
3843;SDS011;1937;51.444;6.484;2023-04-24T09:47:39;32.10;;;7.50;;
3843;SDS011;1937;51.444;6.484;2023-04-24T09:50:10;19.50;;;5.80;;
3843;SDS011;1937;51.444;6.484;2023-04-24T09:52:43;21.63;;;7.23;;
3843;SDS011;1937;51.444;6.484;2023-04-24T09:55:11;23.13;;;6.27;;
3843;SDS011;1937;51.444;6.484;2023-04-24T09:57:46;27.20;;;6.57;;
3843;SDS011;1937;51.444;6.484;2023-04-24T10:00:17;22.70;;;6.23;;
3843;SDS011;1937;51.444;6.484;2023-04-24T10:02:47;26.10;;;6.40;;
3843;SDS011;1937;51.444;6.484;2023-04-24T10:05:16;26.93;;;7.03;;
3843;SDS011;1937;51.444;6.484;2023-04-24T10:07:44;24.00;;;6.90;;
3843;SDS011;1937;51.444;6.484;2023-04-24T10:10:11;22.10;;;6.60;;
3843;SDS011;1937;51.444;6.484;2023-04-24T10:12:38;23.20;;;7.00;;
3843;SDS011;1937;51.444;6.484;2023-04-24T10:15:05;27.40;;;6.50;;
3843;SDS011;1937;51.444;6.484;2023-04-24T10:17:34;29.67;;;6.83;;
3843;SDS011;1937;51.444;6.484;2023-04-24T10:20:02;25.70;;;5.90;;
3843;SDS011;1937;51.444;6.484;2023-04-24T10:22:29;23.90;;;6.50;;
3843;SDS011;1937;51.444;6.484;2023-04-24T10:24:57;26.73;;;6.40;;
3843;SDS011;1937;51.444;6.484;2023-04-24T10:27:25;23.93;;;7.80;;
3843;SDS011;1937;51.444;6.484;2023-04-24T10:29:53;27.87;;;7.10;;
3843;SDS011;1937;51.444;6.484;2023-04-24T10:32:19;23.00;;;6.03;;
3843;SDS011;1937;51.444;6.484;2023-04-24T10:34:46;29.47;;;7.30;;
3843;SDS011;1937;51.444;6.484;2023-04-24T10:37:13;20.60;;;6.00;;
3843;SDS011;1937;51.444;6.484;2023-04-24T10:39:40;25.60;;;6.70;;
3843;SDS011;1937;51.444;6.484;2023-04-24T10:42:15;25.20;;;8.13;;
3843;SDS011;1937;51.444;6.484;2023-04-24T10:44:42;26.07;;;6.93;;
3843;SDS011;1937;51.444;6.484;2023-04-24T10:47:12;25.80;;;7.90;;
3843;SDS011;1937;51.444;6.484;2023-04-24T10:49:40;26.63;;;6.70;;
3843;SDS011;1937;51.444;6.484;2023-04-24T10:52:06;28.60;;;5.90;;
3843;SDS011;1937;51.444;6.484;2023-04-24T10:54:36;31.77;;;6.00;;
3843;SDS011;1937;51.444;6.484;2023-04-24T10:57:28;21.80;;;6.03;;
3843;SDS011;1937;51.444;6.484;2023-04-24T11:00:15;27.30;;;5.80;;
3843;SDS011;1937;51.444;6.484;2023-04-24T11:02:45;29.23;;;6.60;;
3843;SDS011;1937;51.444;6.484;2023-04-24T11:05:15;30.50;;;5.77;;
3843;SDS011;1937;51.444;6.484;2023-04-24T11:10:54;30.53;;;5.57;;
3843;SDS011;1937;51.444;6.484;2023-04-24T11:13:24;25.63;;;5.23;;
3843;SDS011;1937;51.444;6.484;2023-04-24T11:18:41;23.87;;;5.30;;
3843;SDS011;1937;51.444;6.484;2023-04-24T11:21:11;24.77;;;5.30;;
3843;SDS011;1937;51.444;6.484;2023-04-24T11:23:38;24.73;;;5.20;;
3843;SDS011;1937;51.444;6.484;2023-04-24T11:26:11;25.03;;;4.93;;
3843;SDS011;1937;51.444;6.484;2023-04-24T11:28:45;26.40;;;4.60;;
3843;SDS011;1937;51.444;6.484;2023-04-24T11:34:05;28.50;;;6.10;;
3843;SDS011;1937;51.444;6.484;2023-04-24T11:36:33;39.53;;;7.60;;
3843;SDS011;1937;51.444;6.484;2023-04-24T11:39:00;33.53;;;8.00;;
3843;SDS011;1937;51.444;6.484;2023-04-24T11:41:28;34.70;;;7.90;;
3843;SDS011;1937;51.444;6.484;2023-04-24T11:43:56;40.23;;;10.37;;
3843;SDS011;1937;51.444;6.484;2023-04-24T11:46:26;40.53;;;8.47;;
3843;SDS011;1937;51.444;6.484;2023-04-24T11:48:54;43.93;;;8.37;;
3843;SDS011;1937;51.444;6.484;2023-04-24T11:51:22;40.60;;;7.73;;
3843;SDS011;1937;51.444;6.484;2023-04-24T11:53:48;48.90;;;17.83;;
3843;SDS011;1937;51.444;6.484;2023-04-24T11:56:17;40.20;;;5.53;;
3843;SDS011;1937;51.444;6.484;2023-04-24T11:58:45;36.47;;;6.27;;
3843;SDS011;1937;51.444;6.484;2023-04-24T12:01:13;35.10;;;5.13;;
3843;SDS011;1937;51.444;6.484;2023-04-24T12:03:40;39.40;;;5.77;;
3843;SDS011;1937;51.444;6.484;2023-04-24T12:06:08;43.40;;;5.30;;
3843;SDS011;1937;51.444;6.484;2023-04-24T12:08:37;39.90;;;5.50;;
3843;SDS011;1937;51.444;6.484;2023-04-24T12:11:04;36.87;;;4.83;;
3843;SDS011;1937;51.444;6.484;2023-04-24T12:13:32;40.33;;;6.37;;
3843;SDS011;1937;51.444;6.484;2023-04-24T12:15:59;39.03;;;4.43;;
3843;SDS011;1937;51.444;6.484;2023-04-24T12:18:29;38.80;;;4.80;;
3843;SDS011;1937;51.444;6.484;2023-04-24T12:23:42;40.77;;;4.07;;
3843;SDS011;1937;51.444;6.484;2023-04-24T12:26:09;40.00;;;4.27;;
3843;SDS011;1937;51.444;6.484;2023-04-24T12:28:36;41.50;;;8.50;;
3843;SDS011;1937;51.444;6.484;2023-04-24T12:31:03;38.63;;;3.83;;
3843;SDS011;1937;51.444;6.484;2023-04-24T12:33:33;39.60;;;4.00;;
3843;SDS011;1937;51.444;6.484;2023-04-24T12:36:01;38.03;;;4.30;;
3843;SDS011;1937;51.444;6.484;2023-04-24T12:38:28;37.87;;;4.70;;
3843;SDS011;1937;51.444;6.484;2023-04-24T12:41:02;39.23;;;4.80;;
3843;SDS011;1937;51.444;6.484;2023-04-24T12:43:30;41.17;;;4.00;;
3843;SDS011;1937;51.444;6.484;2023-04-24T12:45:56;37.57;;;4.73;;
3843;SDS011;1937;51.444;6.484;2023-04-24T12:48:24;34.93;;;4.10;;
3843;SDS011;1937;51.444;6.484;2023-04-24T12:50:52;37.43;;;5.60;;
3843;SDS011;1937;51.444;6.484;2023-04-24T12:53:18;40.20;;;7.10;;
3843;SDS011;1937;51.444;6.484;2023-04-24T12:55:45;34.47;;;4.60;;
3843;SDS011;1937;51.444;6.484;2023-04-24T12:58:17;38.63;;;5.30;;
3843;SDS011;1937;51.444;6.484;2023-04-24T13:00:44;35.00;;;4.60;;
3843;SDS011;1937;51.444;6.484;2023-04-24T13:03:11;33.87;;;4.37;;
3843;SDS011;1937;51.444;6.484;2023-04-24T13:05:38;41.70;;;5.63;;
3843;SDS011;1937;51.444;6.484;2023-04-24T13:08:06;34.20;;;4.40;;
3843;SDS011;1937;51.444;6.484;2023-04-24T13:10:33;35.40;;;4.70;;
3843;SDS011;1937;51.444;6.484;2023-04-24T13:13:00;35.20;;;4.20;;
3843;SDS011;1937;51.444;6.484;2023-04-24T13:15:27;36.70;;;5.00;;
3843;SDS011;1937;51.444;6.484;2023-04-24T13:17:54;35.20;;;4.90;;
3843;SDS011;1937;51.444;6.484;2023-04-24T13:20:20;34.23;;;4.90;;
3843;SDS011;1937;51.444;6.484;2023-04-24T13:22:47;34.97;;;5.43;;
3843;SDS011;1937;51.444;6.484;2023-04-24T13:25:15;34.50;;;4.67;;
3843;SDS011;1937;51.444;6.484;2023-04-24T13:27:43;34.33;;;5.43;;
3843;SDS011;1937;51.444;6.484;2023-04-24T13:30:10;40.63;;;5.87;;
3843;SDS011;1937;51.444;6.484;2023-04-24T13:32:37;35.83;;;6.40;;
3843;SDS011;1937;51.444;6.484;2023-04-24T13:35:04;33.10;;;6.70;;
3843;SDS011;1937;51.444;6.484;2023-04-24T13:37:31;33.33;;;6.10;;
3843;SDS011;1937;51.444;6.484;2023-04-24T13:39:58;37.33;;;6.53;;
3843;SDS011;1937;51.444;6.484;2023-04-24T13:42:26;32.80;;;5.87;;
3843;SDS011;1937;51.444;6.484;2023-04-24T13:44:53;35.57;;;7.13;;
3843;SDS011;1937;51.444;6.484;2023-04-24T13:47:20;33.73;;;7.37;;
3843;SDS011;1937;51.444;6.484;2023-04-24T13:49:46;32.90;;;8.37;;
3843;SDS011;1937;51.444;6.484;2023-04-24T13:52:13;33.60;;;10.67;;
3843;SDS011;1937;51.444;6.484;2023-04-24T13:54:40;34.83;;;9.13;;
3843;SDS011;1937;51.444;6.484;2023-04-24T13:57:07;31.97;;;8.43;;
3843;SDS011;1937;51.444;6.484;2023-04-24T13:59:35;30.30;;;11.53;;
3843;SDS011;1937;51.444;6.484;2023-04-24T14:02:02;32.80;;;8.40;;
3843;SDS011;1937;51.444;6.484;2023-04-24T14:04:28;28.33;;;8.27;;
3843;SDS011;1937;51.444;6.484;2023-04-24T14:06:55;31.70;;;8.00;;
3843;SDS011;1937;51.444;6.484;2023-04-24T14:09:22;29.63;;;10.03;;
3843;SDS011;1937;51.444;6.484;2023-04-24T14:11:49;31.83;;;9.63;;
3843;SDS011;1937;51.444;6.484;2023-04-24T14:14:15;27.47;;;8.17;;
3843;SDS011;1937;51.444;6.484;2023-04-24T14:16:43;26.37;;;6.47;;
3843;SDS011;1937;51.444;6.484;2023-04-24T14:19:10;23.87;;;6.63;;
3843;SDS011;1937;51.444;6.484;2023-04-24T14:21:37;25.27;;;7.07;;
3843;SDS011;1937;51.444;6.484;2023-04-24T14:24:03;36.43;;;16.47;;
3843;SDS011;1937;51.444;6.484;2023-04-24T14:26:31;27.77;;;7.70;;
3843;SDS011;1937;51.444;6.484;2023-04-24T14:28:58;28.73;;;8.47;;
3843;SDS011;1937;51.444;6.484;2023-04-24T14:31:24;30.97;;;9.40;;
3843;SDS011;1937;51.444;6.484;2023-04-24T14:33:52;31.27;;;6.93;;
3843;SDS011;1937;51.444;6.484;2023-04-24T14:36:22;30.43;;;5.50;;
3843;SDS011;1937;51.444;6.484;2023-04-24T14:38:49;32.20;;;5.90;;
3843;SDS011;1937;51.444;6.484;2023-04-24T14:41:15;30.50;;;4.90;;
3843;SDS011;1937;51.444;6.484;2023-04-24T14:43:42;34.30;;;4.93;;
3843;SDS011;1937;51.444;6.484;2023-04-24T14:46:09;31.67;;;4.60;;
3843;SDS011;1937;51.444;6.484;2023-04-24T14:48:35;35.40;;;6.30;;
3843;SDS011;1937;51.444;6.484;2023-04-24T14:51:03;34.70;;;5.20;;
3843;SDS011;1937;51.444;6.484;2023-04-24T14:53:30;31.60;;;4.23;;
3843;SDS011;1937;51.444;6.484;2023-04-24T14:55:58;38.30;;;6.43;;
3843;SDS011;1937;51.444;6.484;2023-04-24T14:58:25;32.50;;;5.80;;
3843;SDS011;1937;51.444;6.484;2023-04-24T15:00:51;30.97;;;6.67;;
3843;SDS011;1937;51.444;6.484;2023-04-24T15:03:19;32.03;;;7.07;;
3843;SDS011;1937;51.444;6.484;2023-04-24T15:05:46;29.40;;;6.40;;
3843;SDS011;1937;51.444;6.484;2023-04-24T15:08:14;29.70;;;5.87;;
3843;SDS011;1937;51.444;6.484;2023-04-24T15:10:41;31.97;;;8.00;;